Weather Underground® Station Historical Data


Station Historical Data For Bruceton, TN. (K3JAE's Weather Station - KTNBRUCE2)
Daily Summary for:  January 4, 2018 Units:  English    Metric   Both
« Previous Day
Next Day »
Daily Weekly Monthly Yearly Custom
  High: Low: Average:
Temperature: 24.6 °F 10.7 °F 17.6 °F
Dew Point: 12.6 °F 3.6 °F 6.7 °F
Humidity: 76% 44% 63%
Wind Speed: 11.5mph 0.0mph 3.9mph
Wind Gust: 13.0mph - -
Wind- - West
Pressure: 30.43 in 30.26 in -
Precipitation: 0.00 in    
Historical Graphs
 
 
Tabular Data for:  January 4, 2018
Time Temperature Dew Point Pressure Wind Wind Speed Wind Gust Humidity Rainfall Rate (Hourly) solar Conditions
00:01 18.7 °F 12.1 °F 30.26 in NW 2.3 mph 2.3 mph 75% 0.00 in 0.0 W/m2 CLR
00:03 18.6 °F 12.0 °F 30.26 in NW 2.3 mph 2.3 mph 75% 0.00 in 0.0 W/m2 CLR
00:08 18.5 °F 12.2 °F 30.26 in NW 1.2 mph 1.2 mph 76% 0.00 in 0.0 W/m2 CLR
00:12 18.4 °F 12.1 °F 30.26 in NW 2.3 mph 2.3 mph 76% 0.00 in 0.0 W/m2 CLR
00:15 18.4 °F 12.1 °F 30.26 in NW 2.3 mph 2.3 mph 76% 0.00 in 0.0 W/m2 CLR
00:17 18.3 °F 12.0 °F 30.26 in NW 2.3 mph 2.3 mph 76% 0.00 in 0.0 W/m2 CLR
00:21 18.3 °F 12.0 °F 30.26 in NW 3.5 mph 3.5 mph 76% 0.00 in 0.0 W/m2 CLR
00:22 18.4 °F 12.1 °F 30.26 in NW 3.5 mph 3.5 mph 76% 0.00 in 0.0 W/m2 CLR
00:26 18.6 °F 12.3 °F 30.26 in NW 3.5 mph 3.5 mph 76% 0.00 in 0.0 W/m2 CLR
00:27 18.6 °F 12.3 °F 30.26 in NW 3.5 mph 3.5 mph 76% 0.00 in 0.0 W/m2 CLR
00:28 18.7 °F 12.4 °F 30.26 in NW 2.3 mph 2.3 mph 76% 0.00 in 0.0 W/m2 CLR
00:31 18.8 °F 12.5 °F 30.26 in NW 3.5 mph 3.5 mph 76% 0.00 in 0.0 W/m2 CLR
00:35 18.9 °F 12.6 °F 30.26 in NW 4.0 mph 4.0 mph 76% 0.00 in 0.0 W/m2 CLR
00:36 18.9 °F 12.3 °F 30.26 in NW 3.5 mph 3.5 mph 75% 0.00 in 0.0 W/m2 CLR
00:41 19.0 °F 12.4 °F 30.26 in NW 3.5 mph 3.5 mph 75% 0.00 in 0.0 W/m2 CLR
00:46 19.1 °F 12.5 °F 30.26 in NW 2.3 mph 2.3 mph 75% 0.00 in 0.0 W/m2 CLR
00:47 19.1 °F 12.5 °F 30.26 in NW 3.5 mph 3.5 mph 75% 0.00 in 0.0 W/m2 CLR
00:52 19.1 °F 12.5 °F 30.26 in NW 3.5 mph 3.5 mph 75% 0.00 in 0.0 W/m2 CLR
00:55 19.0 °F 12.4 °F 30.26 in NW 4.0 mph 4.0 mph 75% 0.00 in 0.0 W/m2 CLR
00:57 19.0 °F 12.4 °F 30.26 in NW 4.6 mph 4.6 mph 75% 0.00 in 0.0 W/m2 CLR
01:02 19.1 °F 12.5 °F 30.27 in NW 3.5 mph 3.5 mph 75% 0.00 in 0.0 W/m2 CLR
01:04 19.1 °F 12.2 °F 30.26 in NW 3.5 mph 3.5 mph 74% 0.00 in 0.0 W/m2 CLR
01:07 19.1 °F 12.2 °F 30.26 in NW 4.6 mph 4.6 mph 74% 0.00 in 0.0 W/m2 CLR
01:10 19.1 °F 12.2 °F 30.26 in NNW 3.5 mph 3.5 mph 74% 0.00 in 0.0 W/m2 CLR
01:15 19.2 °F 12.0 °F 30.26 in NE 8.1 mph 8.1 mph 73% 0.00 in 0.0 W/m2 CLR
01:19 19.2 °F 12.0 °F 30.26 in NW 4.6 mph 4.6 mph 73% 0.00 in 0.0 W/m2 CLR
01:21 19.2 °F 11.6 °F 30.27 in NW 3.5 mph 3.5 mph 72% 0.00 in 0.0 W/m2 CLR
01:26 19.2 °F 11.6 °F 30.27 in NW 6.9 mph 6.9 mph 72% 0.00 in 0.0 W/m2 CLR
01:31 19.2 °F 11.3 °F 30.27 in NW 5.8 mph 5.8 mph 71% 0.00 in 0.0 W/m2 CLR
01:32 19.2 °F 11.3 °F 30.27 in NW 5.8 mph 5.8 mph 71% 0.00 in 0.0 W/m2 CLR
01:35 19.1 °F 11.2 °F 30.27 in NW 4.6 mph 4.6 mph 71% 0.00 in 0.0 W/m2 CLR
01:37 19.1 °F 11.6 °F 30.27 in NW 9.2 mph 9.2 mph 72% 0.00 in 0.0 W/m2 CLR
01:39 19.1 °F 11.2 °F 30.27 in NW 3.5 mph 3.5 mph 71% 0.00 in 0.0 W/m2 CLR
01:42 19.0 °F 11.1 °F 30.28 in NW 5.8 mph 6.4 mph 71% 0.00 in 0.0 W/m2 CLR
01:44 19.0 °F 10.8 °F 30.28 in NW 10.4 mph 10.4 mph 70% 0.00 in 0.0 W/m2 CLR
01:48 19.0 °F 10.8 °F 30.28 in NW 8.1 mph 8.1 mph 70% 0.00 in 0.0 W/m2 CLR
01:51 19.0 °F 10.5 °F 30.28 in NW 10.4 mph 10.4 mph 69% 0.00 in 0.0 W/m2 CLR
01:55 19.0 °F 10.5 °F 30.28 in NNW 3.0 mph 13.0 mph 69% 0.00 in 0.0 W/m2 CLR
01:57 19.0 °F 10.2 °F 30.28 in NW 11.5 mph 11.5 mph 68% 0.00 in 0.0 W/m2 CLR
02:02 18.9 °F 10.1 °F 30.28 in NW 5.0 mph 5.0 mph 68% 0.00 in 0.0 W/m2 CLR
02:04 18.9 °F 10.4 °F 30.28 in NNW 4.6 mph 4.6 mph 69% 0.00 in 0.0 W/m2 CLR
02:07 18.8 °F 10.0 °F 30.28 in NW 3.5 mph 3.5 mph 68% 0.00 in 0.0 W/m2 CLR
02:09 18.8 °F 10.3 °F 30.28 in NW 3.5 mph 3.5 mph 69% 0.00 in 0.0 W/m2 CLR
02:13 18.6 °F 10.1 °F 30.28 in NNE 3.5 mph 3.5 mph 69% 0.00 in 0.0 W/m2 CLR
02:15 18.6 °F 9.8 °F 30.28 in NNE 3.5 mph 3.5 mph 68% 0.00 in 0.0 W/m2 CLR
02:18 18.5 °F 9.7 °F 30.28 in North 3.5 mph 3.5 mph 68% 0.00 in 0.0 W/m2 CLR
02:22 18.3 °F 9.5 °F 30.28 in North 6.0 mph 6.0 mph 68% 0.00 in 0.0 W/m2 CLR
02:27 18.3 °F 9.2 °F 30.28 in NW 10.4 mph 10.4 mph 67% 0.00 in 0.0 W/m2 CLR
02:28 18.3 °F 9.2 °F 30.28 in WNW 6.9 mph 6.9 mph 67% 0.00 in 0.0 W/m2 CLR
02:29 18.3 °F 9.2 °F 30.28 in NW 4.6 mph 4.6 mph 67% 0.00 in 0.0 W/m2 CLR
02:30 18.2 °F 9.1 °F 30.28 in NNW 6.9 mph 6.9 mph 67% 0.00 in 0.0 W/m2 CLR
02:35 18.1 °F 8.6 °F 30.28 in NW 6.0 mph 6.0 mph 66% 0.00 in 0.0 W/m2 CLR
02:36 18.1 °F 8.6 °F 30.28 in NW 10.4 mph 10.4 mph 66% 0.00 in 0.0 W/m2 CLR
02:41 17.9 °F 8.5 °F 30.28 in North 8.1 mph 8.1 mph 66% 0.00 in 0.0 W/m2 CLR
02:44 17.9 °F 8.5 °F 30.29 in NNE 8.1 mph 8.1 mph 66% 0.00 in 0.0 W/m2 CLR
02:49 17.8 °F 8.4 °F 30.29 in NW 8.1 mph 8.1 mph 66% 0.00 in 0.0 W/m2 CLR
02:50 17.7 °F 8.3 °F 30.29 in NNW 6.0 mph 6.0 mph 66% 0.00 in 0.0 W/m2 CLR
02:51 17.6 °F 8.2 °F 30.29 in NNW 8.1 mph 8.1 mph 66% 0.00 in 0.0 W/m2 CLR
02:52 17.6 °F 8.2 °F 30.29 in NW 8.0 mph 8.0 mph 66% 0.00 in 0.0 W/m2 CLR
02:57 17.5 °F 8.1 °F 30.29 in WNW 3.5 mph 3.5 mph 66% 0.00 in 0.0 W/m2 CLR
02:58 17.5 °F 8.1 °F 30.29 in WNW 3.5 mph 3.5 mph 66% 0.00 in 0.0 W/m2 CLR
02:59 17.4 °F 8.3 °F 30.29 in WNW 3.5 mph 3.5 mph 67% 0.00 in 0.0 W/m2 CLR
03:04 17.3 °F 8.2 °F 30.29 in NW 3.5 mph 3.5 mph 67% 0.00 in 0.0 W/m2 CLR
03:06 17.2 °F 8.1 °F 30.29 in North 4.6 mph 4.6 mph 67% 0.00 in 0.0 W/m2 CLR
03:09 17.0 °F 7.9 °F 30.29 in NNW 5.8 mph 5.8 mph 67% 0.00 in 0.0 W/m2 CLR
03:14 16.9 °F 7.8 °F 30.29 in NW 9.2 mph 9.2 mph 67% 0.00 in 0.0 W/m2 CLR
03:19 16.7 °F 7.6 °F 30.29 in NW 6.9 mph 6.9 mph 67% 0.00 in 0.0 W/m2 CLR
03:23 16.6 °F 7.9 °F 30.29 in NW 3.5 mph 3.5 mph 68% 0.00 in 0.0 W/m2 CLR
03:25 16.5 °F 7.8 °F 30.29 in NW 5.0 mph 5.0 mph 68% 0.00 in 0.0 W/m2 CLR
03:30 16.3 °F 7.6 °F 30.29 in NW 7.0 mph 7.0 mph 68% 0.00 in 0.0 W/m2 CLR
03:32 16.3 °F 7.6 °F 30.29 in NW 8.1 mph 8.1 mph 68% 0.00 in 0.0 W/m2 CLR
03:34 16.2 °F 7.5 °F 30.29 in NW 8.1 mph 8.1 mph 68% 0.00 in 0.0 W/m2 CLR
03:39 16.0 °F 7.3 °F 30.29 in NW 9.2 mph 9.2 mph 68% 0.00 in 0.0 W/m2 CLR
03:41 16.0 °F 7.3 °F 30.29 in NW 3.5 mph 3.5 mph 68% 0.00 in 0.0 W/m2 CLR
03:42 15.9 °F 7.2 °F 30.29 in WNW 4.6 mph 4.6 mph 68% 0.00 in 0.0 W/m2 CLR
03:47 15.8 °F 7.1 °F 30.28 in NNW 3.5 mph 3.5 mph 68% 0.00 in 0.0 W/m2 CLR
03:48 15.8 °F 7.4 °F 30.28 in NNW 4.0 mph 4.0 mph 69% 0.00 in 0.0 W/m2 CLR
03:51 15.7 °F 7.0 °F 30.29 in NW 6.9 mph 6.9 mph 68% 0.00 in 0.0 W/m2 CLR
03:56 15.6 °F 7.2 °F 30.29 in NNW 3.5 mph 3.5 mph 69% 0.00 in 0.0 W/m2 CLR
03:57 15.5 °F 7.1 °F 30.28 in NNW 4.6 mph 4.6 mph 69% 0.00 in 0.0 W/m2 CLR
03:58 15.5 °F 7.1 °F 30.29 in NNW 4.6 mph 4.6 mph 69% 0.00 in 0.0 W/m2 CLR
04:03 15.4 °F 7.0 °F 30.28 in NW 8.1 mph 8.1 mph 69% 0.00 in 0.0 W/m2 CLR
04:05 15.4 °F 7.0 °F 30.29 in NW 3.5 mph 3.5 mph 69% 0.00 in 0.0 W/m2 CLR
04:10 15.3 °F 6.9 °F 30.29 in North 3.5 mph 3.5 mph 69% 0.00 in 0.0 W/m2 CLR
04:11 15.2 °F 6.8 °F 30.28 in NW 4.6 mph 4.6 mph 69% 0.00 in 0.0 W/m2 CLR
04:16 15.1 °F 7.1 °F 30.29 in North 6.9 mph 6.9 mph 70% 0.00 in 0.0 W/m2 CLR
04:18 15.1 °F 7.1 °F 30.29 in NW 4.6 mph 4.6 mph 70% 0.00 in 0.0 W/m2 CLR
04:19 15.1 °F 7.1 °F 30.29 in North 4.6 mph 4.6 mph 70% 0.00 in 0.0 W/m2 CLR
04:24 15.0 °F 7.0 °F 30.29 in North 3.0 mph 3.0 mph 70% 0.00 in 0.0 W/m2 CLR
04:26 14.9 °F 6.9 °F 30.29 in North 3.5 mph 3.5 mph 70% 0.00 in 0.0 W/m2 CLR
04:31 14.8 °F 6.8 °F 30.29 in North 5.8 mph 5.8 mph 70% 0.00 in 0.0 W/m2 CLR
04:32 14.7 °F 6.7 °F 30.30 in North 3.5 mph 3.5 mph 70% 0.00 in 0.0 W/m2 CLR
04:33 14.7 °F 7.0 °F 30.29 in NNW 3.5 mph 3.5 mph 71% 0.00 in 0.0 W/m2 CLR
04:38 14.6 °F 6.9 °F 30.30 in NW 3.5 mph 3.5 mph 71% 0.00 in 0.0 W/m2 CLR
04:41 14.6 °F 6.9 °F 30.30 in NW 3.5 mph 3.5 mph 71% 0.00 in 0.0 W/m2 CLR
04:46 14.4 °F 6.7 °F 30.30 in NW 3.5 mph 3.5 mph 71% 0.00 in 0.0 W/m2 CLR
04:48 14.3 °F 6.6 °F 30.30 in NW 3.5 mph 3.5 mph 71% 0.00 in 0.0 W/m2 CLR
04:51 14.2 °F 6.8 °F 30.31 in NW 3.5 mph 3.5 mph 72% 0.00 in 0.0 W/m2 CLR
04:56 14.1 °F 6.7 °F 30.31 in NW 5.0 mph 5.0 mph 72% 0.00 in 0.0 W/m2 CLR
05:01 14.0 °F 6.6 °F 30.31 in WNW 3.5 mph 3.5 mph 72% 0.00 in 0.0 W/m2 CLR
05:03 13.9 °F 6.5 °F 30.31 in WNW 2.3 mph 2.3 mph 72% 0.00 in 0.0 W/m2 CLR
05:06 13.8 °F 6.4 °F 30.31 in WNW 3.5 mph 3.5 mph 72% 0.00 in 0.0 W/m2 CLR
05:11 13.7 °F 6.6 °F 30.31 in WNW 3.5 mph 3.5 mph 73% 0.00 in 0.0 W/m2 CLR
05:12 13.7 °F 6.6 °F 30.31 in NW 3.5 mph 3.5 mph 73% 0.00 in 0.0 W/m2 CLR
05:16 13.6 °F 6.5 °F 30.31 in NW 3.5 mph 3.5 mph 73% 0.00 in 0.0 W/m2 CLR
05:21 13.4 °F 6.4 °F 30.31 in NW 3.5 mph 3.5 mph 73% 0.00 in 0.0 W/m2 CLR
05:22 13.4 °F 6.4 °F 30.32 in NW 3.5 mph 3.5 mph 73% 0.00 in 0.0 W/m2 CLR
05:25 13.3 °F 6.3 °F 30.32 in NW 3.5 mph 3.5 mph 73% 0.00 in 0.0 W/m2 CLR
05:27 13.2 °F 6.2 °F 30.32 in NW 8.1 mph 8.1 mph 73% 0.00 in 0.0 W/m2 CLR
05:33 13.2 °F 6.5 °F 30.32 in North 4.6 mph 4.6 mph 74% 0.00 in 0.0 W/m2 CLR
05:36 13.2 °F 6.5 °F 30.32 in NW 3.5 mph 3.5 mph 74% 0.00 in 0.0 W/m2 CLR
05:40 13.1 °F 6.4 °F 30.33 in NW 3.5 mph 3.5 mph 74% 0.00 in 0.0 W/m2 CLR
05:43 13.1 °F 6.4 °F 30.33 in NW 2.3 mph 2.3 mph 74% 0.00 in 0.0 W/m2 CLR
05:46 13.0 °F 6.3 °F 30.33 in NW 2.3 mph   74% 0.00 in 0.0 W/m2 CLR
05:49 13.0 °F 6.6 °F 30.33 in NW 1.2 mph 1.2 mph 75% 0.00 in 0.0 W/m2 CLR
05:51 12.9 °F 6.5 °F 30.33 in NW 3.5 mph 3.5 mph 75% 0.00 in 0.0 W/m2 CLR
05:56 12.8 °F 6.4 °F 30.33 in NW 3.5 mph 3.5 mph 75% 0.00 in 0.0 W/m2 CLR
05:57 12.7 °F 6.3 °F 30.33 in NW 3.5 mph 3.5 mph 75% 0.00 in 0.0 W/m2 CLR
06:02 12.6 °F 6.2 °F 30.34 in NW 2.3 mph 2.3 mph 75% 0.00 in 0.0 W/m2 CLR
06:05 12.5 °F 6.1 °F 30.34 in NNW 3.5 mph 3.5 mph 75% 0.00 in 0.0 W/m2 CLR
06:10 12.3 °F 5.9 °F 30.34 in NW 2.3 mph 2.3 mph 75% 0.00 in 0.0 W/m2 CLR
06:11 12.3 °F 5.9 °F 30.34 in NW 3.0 mph 3.0 mph 75% 0.00 in 0.0 W/m2 CLR
06:17 12.1 °F 5.7 °F 30.34 in NW 4.0 mph 4.0 mph 75% 0.00 in 0.0 W/m2 CLR
06:22 12.1 °F 5.7 °F 30.35 in North 4.6 mph 4.6 mph 75% 0.00 in 0.0 W/m2 CLR
06:23 12.0 °F 5.6 °F 30.35 in North 4.6 mph 4.6 mph 75% 0.00 in 0.0 W/m2 CLR
06:28 12.0 °F 5.6 °F 30.35 in NW 2.3 mph 2.3 mph 75% 0.00 in 0.0 W/m2 CLR
06:29 12.0 °F 5.6 °F 30.35 in North 5.8 mph 5.8 mph 75% 0.00 in 0.0 W/m2 CLR
06:34 11.9 °F 5.2 °F 30.35 in NNW 4.6 mph 4.6 mph 74% 0.00 in 0.0 W/m2 CLR
06:35 11.9 °F 5.2 °F 30.35 in NNE 8.1 mph 8.1 mph 74% 0.00 in 0.0 W/m2 CLR
06:40 11.8 °F 5.1 °F 30.35 in NW 4.6 mph 4.6 mph 74% 0.00 in 0.0 W/m2 CLR
06:41 11.8 °F 5.1 °F 30.36 in NW 3.5 mph 3.5 mph 74% 0.00 in 0.0 W/m2 CLR
06:46 11.7 °F 5.0 °F 30.36 in NNE 4.6 mph 4.6 mph 74% 0.00 in 0.0 W/m2 CLR
06:49 11.6 °F 4.9 °F 30.36 in North 3.0 mph 3.0 mph 74% 0.00 in 0.0 W/m2 CLR
06:50 11.6 °F 4.9 °F 30.36 in North 2.0 mph 5.0 mph 74% 0.00 in 0.0 W/m2 CLR
06:52 11.6 °F 4.9 °F 30.36 in North 4.0 mph 4.0 mph 74% 0.00 in 0.0 W/m2 CLR
06:55 11.5 °F 4.8 °F 30.37 in NNE 3.5 mph 3.5 mph 74% 0.00 in 0.0 W/m2 CLR
06:56 11.5 °F 4.8 °F 30.36 in North 4.6 mph 4.6 mph 74% 0.00 in 0.0 W/m2 CLR
06:58 11.5 °F 4.8 °F 30.36 in North 4.6 mph 4.6 mph 74% 0.00 in 0.0 W/m2 CLR
07:03 11.3 °F 4.6 °F 30.36 in North 3.5 mph 3.5 mph 74% 0.00 in 0.0 W/m2 CLR
07:05 11.3 °F 4.3 °F 30.36 in North 4.6 mph 4.6 mph 73% 0.00 in 5.0 W/m2 CLR
07:06 11.3 °F 4.3 °F 30.36 in NNW 4.6 mph 4.6 mph 73% 0.00 in 5.0 W/m2 CLR
07:11 11.2 °F 4.2 °F 30.36 in NW 3.5 mph 3.5 mph 73% 0.00 in 7.0 W/m2 CLR
07:16 11.1 °F 4.1 °F 30.37 in NNW 4.0 mph 4.0 mph 73% 0.00 in 9.0 W/m2 CLR
07:25 10.9 °F 3.9 °F 30.37 in NNW 3.5 mph 3.5 mph 73% 0.00 in 12.0 W/m2 CLR
07:30 10.9 °F 3.9 °F 30.37 in NW 3.5 mph 4.3 mph 73% 0.00 in 14.0 W/m2 CLR
07:31 10.9 °F 3.9 °F 30.37 in NW 5.0 mph 5.0 mph 73% 0.00 in 14.0 W/m2 CLR
07:34 10.8 °F 3.8 °F 30.37 in North 3.5 mph 3.5 mph 73% 0.00 in 16.0 W/m2 CLR
07:39 10.8 °F 4.1 °F 30.37 in NW 4.0 mph 4.0 mph 74% 0.00 in 23.0 W/m2 CLR
07:41 10.7 °F 4.0 °F 30.37 in NW 3.5 mph 3.5 mph 74% 0.00 in 25.0 W/m2 CLR
07:44 10.7 °F 4.0 °F 30.37 in NW 6.0 mph 6.0 mph 74% 0.00 in 25.0 W/m2 CLR
07:45 10.7 °F 4.0 °F 30.37 in NW 5.8 mph 5.8 mph 74% 0.00 in 26.0 W/m2 CLR
07:48 10.8 °F 4.1 °F 30.38 in NW 3.5 mph 3.5 mph 74% 0.00 in 28.0 W/m2 CLR
07:51 10.8 °F 4.1 °F 30.38 in NW 4.6 mph 4.6 mph 74% 0.00 in 30.0 W/m2 CLR
07:56 11.0 °F 4.3 °F 30.38 in NW 4.6 mph 4.6 mph 74% 0.00 in 37.0 W/m2 CLR
07:57 10.9 °F 4.2 °F 30.38 in NNE 3.5 mph 3.5 mph 74% 0.00 in 39.0 W/m2 CLR
08:02 11.1 °F 4.4 °F 30.38 in NW 4.6 mph 4.6 mph 74% 0.00 in 44.0 W/m2 CLR
08:07 11.3 °F 4.6 °F 30.38 in NW 3.5 mph 3.5 mph 74% 0.00 in 39.0 W/m2 CLR
08:12 11.4 °F 4.7 °F 30.38 in NW 6.9 mph 6.9 mph 74% 0.00 in 46.0 W/m2 CLR
08:13 11.4 °F 4.4 °F 30.38 in NNW 8.1 mph 8.1 mph 73% 0.00 in 65.0 W/m2 CLR
08:16 11.5 °F 4.8 °F 30.39 in NW 3.5 mph 3.5 mph 74% 0.00 in 56.0 W/m2 CLR
08:18 11.5 °F 4.8 °F 30.39 in NW 9.2 mph 9.2 mph 74% 0.00 in 60.0 W/m2 CLR
08:21 11.6 °F 4.6 °F 30.39 in NW 3.5 mph 3.5 mph 73% 0.00 in 56.0 W/m2 CLR
08:24 11.7 °F 4.7 °F 30.39 in North 4.6 mph 4.6 mph 73% 0.00 in 63.0 W/m2 CLR
08:29 11.8 °F 4.8 °F 30.39 in NNW 4.6 mph 4.6 mph 73% 0.00 in 60.0 W/m2 CLR
08:30 11.9 °F 4.9 °F 30.39 in NW 11.5 mph 11.5 mph 73% 0.00 in 91.0 W/m2 CLR
08:35 11.9 °F 4.9 °F 30.39 in North 3.5 mph 3.5 mph 73% 0.00 in 123.0 W/m2 CLR
08:36 11.9 °F 4.9 °F 30.39 in NW 4.0 mph 4.0 mph 73% 0.00 in 139.0 W/m2 CLR
08:42 12.2 °F 5.2 °F 30.39 in NW 8.1 mph 8.1 mph 73% 0.00 in 137.0 W/m2 CLR
08:47 12.5 °F 5.5 °F 30.40 in NW 4.6 mph 4.6 mph 73% 0.00 in 171.0 W/m2 CLR
08:48 12.6 °F 5.6 °F 30.40 in NNW 4.6 mph 4.6 mph 73% 0.00 in 155.0 W/m2 CLR
08:50 12.6 °F 5.3 °F 30.40 in NNW 4.6 mph 4.6 mph 72% 0.00 in 72.0 W/m2 CLR
08:56 12.8 °F 5.5 °F 30.41 in NW 6.0 mph 6.0 mph 72% 0.00 in 174.0 W/m2 CLR
09:00 12.8 °F 5.2 °F 30.41 in West 8.1 mph 8.1 mph 71% 0.00 in 146.0 W/m2 CLR
09:02 12.9 °F 5.3 °F 30.41 in WNW 6.9 mph 6.9 mph 71% 0.00 in 69.0 W/m2 CLR
09:07 13.2 °F 5.6 °F 30.41 in WNW 11.5 mph 11.5 mph 71% 0.00 in 72.0 W/m2 CLR
09:08 13.1 °F 5.1 °F 30.41 in NNW 11.5 mph 11.5 mph 70% 0.00 in 123.0 W/m2 CLR
09:13 13.2 °F 5.2 °F 30.41 in NW 8.1 mph 8.1 mph 70% 0.00 in 229.0 W/m2 CLR
09:18 13.4 °F 5.1 °F 30.42 in NW 6.9 mph 6.9 mph 69% 0.00 in 190.0 W/m2 CLR
09:20 13.4 °F 5.1 °F 30.41 in WNW 4.6 mph 4.6 mph 69% 0.00 in 127.0 W/m2 CLR
09:21 13.4 °F 5.1 °F 30.41 in North 6.0 mph 6.0 mph 69% 0.00 in 74.0 W/m2 CLR
09:26 13.7 °F 5.7 °F 30.41 in WNW 8.1 mph 8.1 mph 70% 0.00 in 160.0 W/m2 CLR
09:27 13.8 °F 5.8 °F 30.41 in WNW 6.9 mph 6.9 mph 70% 0.00 in 232.0 W/m2 CLR
09:32 14.0 °F 5.7 °F 30.42 in NW 10.4 mph 10.4 mph 69% 0.00 in 186.0 W/m2 CLR
09:35 14.1 °F 5.5 °F 30.42 in WNW 4.6 mph 4.6 mph 68% 0.00 in 257.0 W/m2 CLR
09:42 14.3 °F 5.7 °F 30.42 in NW 10.4 mph 10.4 mph 68% 0.00 in 146.0 W/m2 CLR
09:45 14.4 °F 5.4 °F 30.42 in NW 5.8 mph 5.8 mph 67% 0.00 in 244.0 W/m2 CLR
09:50 14.6 °F 6.0 °F 30.42 in NW 8.0 mph 8.0 mph 68% 0.00 in 274.0 W/m2 CLR
09:51 14.7 °F 6.0 °F 30.42 in NNE 8.1 mph 8.1 mph 68% 0.00 in 227.0 W/m2 CLR
09:56 15.0 °F 6.0 °F 30.42 in NNW 4.0 mph 4.0 mph 67% 0.00 in 84.0 W/m2 CLR
10:01 15.3 °F 6.0 °F 30.42 in NW 8.1 mph 8.1 mph 66% 0.00 in 253.0 W/m2 CLR
10:03 15.5 °F 6.2 °F 30.42 in NW 3.5 mph 3.5 mph 66% 0.00 in 285.0 W/m2 CLR
10:08 15.9 °F 6.5 °F 30.42 in NW 8.1 mph 8.1 mph 66% 0.00 in 271.0 W/m2 CLR
10:12 16.1 °F 6.1 °F 30.42 in NW 6.9 mph 6.9 mph 64% 0.00 in 364.0 W/m2 CLR
10:17 16.3 °F 6.2 °F 30.42 in North 6.9 mph 6.9 mph 64% 0.00 in 276.0 W/m2 CLR
10:19 16.2 °F 5.8 °F 30.42 in NNE 4.6 mph 4.6 mph 63% 0.00 in 274.0 W/m2 CLR
10:22 16.4 °F 6.0 °F 30.42 in NNW 3.5 mph 3.5 mph 63% 0.00 in 265.0 W/m2 CLR
10:24 16.5 °F 6.1 °F 30.42 in NNE 5.8 mph 5.8 mph 63% 0.00 in 311.0 W/m2 CLR
10:30 16.4 °F 5.6 °F 30.42 in NE 5.8 mph 5.8 mph 62% 0.00 in 401.0 W/m2 CLR
10:35 16.7 °F 6.3 °F 30.41 in NW 3.5 mph 3.5 mph 63% 0.00 in 295.0 W/m2 CLR
10:36 16.8 °F 6.4 °F 30.42 in NW 8.1 mph 8.1 mph 63% 0.00 in 230.0 W/m2 CLR
10:41 17.3 °F 6.5 °F 30.41 in NNW 6.0 mph 6.0 mph 62% 0.00 in 308.0 W/m2 CLR
10:45 17.4 °F 6.2 °F 30.41 in NNE 4.6 mph 4.6 mph 61% 0.00 in 257.0 W/m2 CLR
10:47 17.4 °F 6.2 °F 30.41 in NNE 4.0 mph 4.0 mph 61% 0.00 in 223.0 W/m2 CLR
10:51 17.8 °F 6.6 °F 30.41 in North 3.5 mph 3.5 mph 61% 0.00 in 223.0 W/m2 CLR
10:56 18.2 °F 6.6 °F 30.41 in WNW 5.8 mph 5.8 mph 60% 0.00 in 320.0 W/m2 CLR
10:58 18.3 °F 6.7 °F 30.41 in WNW 3.5 mph 3.5 mph 60% 0.00 in 341.0 W/m2 CLR
11:03 18.5 °F 6.9 °F 30.41 in NW 8.1 mph 8.1 mph 60% 0.00 in 404.0 W/m2 CLR
11:05 18.7 °F 6.7 °F 30.41 in WNW 10.0 mph 10.0 mph 59% 0.00 in 415.0 W/m2 CLR
11:10 19.1 °F 6.7 °F 30.41 in NNE 5.8 mph 5.8 mph 58% 0.00 in 469.0 W/m2 CLR
11:15 19.3 °F 6.9 °F 30.41 in NW 6.0 mph 6.0 mph 58% 0.00 in 473.0 W/m2 CLR
11:19 19.5 °F 6.7 °F 30.41 in NW 4.6 mph 4.6 mph 57% 0.00 in 459.0 W/m2 CLR
11:20 19.6 °F 6.8 °F 30.40 in NW 4.6 mph 4.6 mph 57% 0.00 in 476.0 W/m2 CLR
11:23 19.7 °F 6.9 °F 30.40 in NW 6.9 mph 6.9 mph 57% 0.00 in 512.0 W/m2 CLR
11:28 20.1 °F 6.9 °F 30.40 in NNW 5.8 mph 5.8 mph 56% 0.00 in 512.0 W/m2 CLR
11:29 20.1 °F 6.9 °F 30.40 in NNW 5.0 mph 5.0 mph 56% 0.00 in 512.0 W/m2 CLR
11:34 20.4 °F 7.2 °F 30.40 in NNE 6.0 mph 6.0 mph 56% 0.00 in 513.0 W/m2 CLR
11:35 20.5 °F 7.3 °F 30.40 in North 5.8 mph 5.8 mph 56% 0.00 in 517.0 W/m2 CLR
11:41 20.1 °F 6.9 °F 30.39 in NNW 6.9 mph 6.9 mph 56% 0.00 in 520.0 W/m2 CLR
11:46 20.3 °F 6.7 °F 30.39 in NW 8.1 mph 8.1 mph 55% 0.00 in 526.0 W/m2 CLR
11:48 20.7 °F 7.1 °F 30.39 in NW 6.9 mph 6.9 mph 55% 0.00 in 520.0 W/m2 CLR
11:53 21.3 °F 6.8 °F 30.39 in NNW 9.2 mph 9.2 mph 53% 0.00 in 524.0 W/m2 CLR
11:58 21.5 °F 6.6 °F 30.38 in WNW 8.0 mph 8.0 mph 52% 0.00 in 526.0 W/m2 CLR
12:03 21.7 °F 6.8 °F 30.38 in WNW 3.5 mph 3.5 mph 52% 0.00 in 524.0 W/m2 CLR
12:04 21.7 °F 7.2 °F 30.38 in NNW 3.5 mph 3.5 mph 53% 0.00 in 524.0 W/m2 CLR
12:10 21.9 °F 6.5 °F 30.37 in NNW 3.0 mph 5.0 mph 51% 0.00 in 520.0 W/m2 CLR
12:15 22.2 °F 6.4 °F 30.38 in WNW 7.0 mph 7.0 mph 50% 0.00 in 522.0 W/m2 CLR
12:20 22.6 °F 6.7 °F 30.38 in NNW 9.2 mph 9.2 mph 50% 0.00 in 520.0 W/m2 CLR
12:21 22.6 °F 6.7 °F 30.38 in NW 4.6 mph 4.6 mph 50% 0.00 in 522.0 W/m2 CLR
12:27 22.7 °F 6.4 °F 30.38 in WNW 3.5 mph 3.5 mph 49% 0.00 in 519.0 W/m2 CLR
12:28 22.8 °F 6.5 °F 30.37 in NW 8.1 mph 8.1 mph 49% 0.00 in 513.0 W/m2 CLR
12:33 23.1 °F 6.3 °F 30.38 in NW 6.0 mph 6.0 mph 48% 0.00 in 512.0 W/m2 CLR
12:35 23.0 °F 5.7 °F 30.38 in NW 5.8 mph 5.8 mph 47% 0.00 in 512.0 W/m2 CLR
12:40 22.7 °F 5.9 °F 30.37 in NNW 8.1 mph 8.1 mph 48% 0.00 in 513.0 W/m2 CLR
12:45 22.4 °F 5.6 °F 30.37 in North 4.6 mph 4.6 mph 48% 0.00 in 506.0 W/m2 CLR
12:49 22.4 °F 5.6 °F 30.37 in NE 9.2 mph 9.2 mph 48% 0.00 in 504.0 W/m2 CLR
12:50 22.3 °F 5.6 °F 30.37 in North 3.5 mph 3.5 mph 48% 0.00 in 499.0 W/m2 CLR
12:55 22.5 °F 6.2 °F 30.37 in NNE 5.8 mph 5.8 mph 49% 0.00 in 494.0 W/m2 CLR
13:00 22.6 °F 6.7 °F 30.37 in NW 3.5 mph 3.5 mph 50% 0.00 in 490.0 W/m2 CLR
13:06 23.1 °F 6.7 °F 30.37 in NNE 5.8 mph 5.8 mph 49% 0.00 in 482.0 W/m2 CLR
13:11 22.8 °F 6.5 °F 30.37 in NW 3.5 mph 3.5 mph 49% 0.00 in 480.0 W/m2 CLR
13:13 22.9 °F 7.0 °F 30.37 in WSW 5.8 mph 5.8 mph 50% 0.00 in 478.0 W/m2 CLR
13:18 22.9 °F 6.6 °F 30.37 in NNE 3.5 mph 3.5 mph 49% 0.00 in 471.0 W/m2 CLR
13:19 22.9 °F 6.1 °F 30.37 in NW 4.6 mph 4.6 mph 48% 0.00 in 471.0 W/m2 CLR
13:25 23.2 °F 6.0 °F 30.37 in North 5.0 mph 8.0 mph 47% 0.00 in 462.0 W/m2 CLR
13:26 23.2 °F 5.9 °F 30.37 in North 8.1 mph 8.1 mph 47% 0.00 in 462.0 W/m2 CLR
13:31 23.4 °F 6.6 °F 30.37 in NNE 3.5 mph 3.5 mph 48% 0.00 in 454.0 W/m2 CLR
13:34 23.5 °F 6.2 °F 30.37 in NW 4.6 mph 4.6 mph 47% 0.00 in 448.0 W/m2 CLR
13:37 23.8 °F 6.9 °F 30.37 in WNW 6.9 mph 6.9 mph 48% 0.00 in 441.0 W/m2 CLR
13:42 23.9 °F 7.0 °F 30.37 in West 5.8 mph 5.8 mph 48% 0.00 in 436.0 W/m2 CLR
13:45 24.2 °F 7.3 °F 30.38 in NW 8.0 mph 8.0 mph 48% 0.00 in 429.0 W/m2 CLR
13:47 24.2 °F 6.8 °F 30.38 in WNW 10.4 mph 10.4 mph 47% 0.00 in 425.0 W/m2 CLR
13:52 24.3 °F 6.5 °F 30.38 in WNW 10.4 mph 10.4 mph 46% 0.00 in 418.0 W/m2 CLR
13:53 24.2 °F 6.4 °F 30.38 in NW 7.0 mph 7.0 mph 46% 0.00 in 418.0 W/m2 CLR
13:58 24.3 °F 6.5 °F 30.37 in NW 6.9 mph 6.9 mph 46% 0.00 in 410.0 W/m2 CLR
14:03 24.6 °F 6.7 °F 30.38 in WNW 5.8 mph 5.8 mph 46% 0.00 in 399.0 W/m2 CLR
14:08 24.6 °F 6.3 °F 30.38 in NW 4.6 mph 4.6 mph 45% 0.00 in 388.0 W/m2 CLR
14:11 24.5 °F 6.2 °F 30.38 in NNE 8.1 mph 8.1 mph 45% 0.00 in 383.0 W/m2 CLR
14:16 24.0 °F 6.2 °F 30.38 in WNW 6.9 mph 6.9 mph 46% 0.00 in 374.0 W/m2 CLR
14:18 24.1 °F 6.3 °F 30.37 in NW 5.8 mph 5.8 mph 46% 0.00 in 369.0 W/m2 CLR
14:23 24.6 °F 6.7 °F 30.37 in WNW 6.0 mph 6.0 mph 46% 0.00 in 360.0 W/m2 CLR
14:28 24.5 °F 5.7 °F 30.38 in WNW 8.1 mph 8.1 mph 44% 0.00 in 336.0 W/m2 CLR
14:30 24.3 °F 5.5 °F 30.38 in NW 8.1 mph 8.1 mph 44% 0.00 in 327.0 W/m2 CLR
14:36 24.1 °F 5.3 °F 30.38 in WNW 9.2 mph 9.2 mph 44% 0.00 in 304.0 W/m2 CLR
14:37 24.2 °F 5.4 °F 30.38 in NW 7.0 mph 7.0 mph 44% 0.00 in 304.0 W/m2 CLR
14:38 24.2 °F 5.4 °F 30.38 in NNW 6.9 mph 6.9 mph 44% 0.00 in 276.0 W/m2 CLR
14:43 24.0 °F 5.7 °F 30.37 in North 3.5 mph 3.5 mph 45% 0.00 in 264.0 W/m2 CLR
14:44 23.8 °F 5.5 °F 30.37 in North 3.5 mph 3.5 mph 45% 0.00 in 195.0 W/m2 CLR
14:49 23.6 °F 5.3 °F 30.37 in West 8.1 mph 8.1 mph 45% 0.00 in 229.0 W/m2 CLR
14:51 23.5 °F 5.2 °F 30.37 in West 3.5 mph 3.5 mph 45% 0.00 in 165.0 W/m2 CLR
14:56 23.3 °F 5.1 °F 30.37 in WNW 8.1 mph 8.1 mph 45% 0.00 in 56.0 W/m2 CLR
15:02 23.2 °F 4.5 °F 30.38 in NW 4.6 mph 4.6 mph 44% 0.00 in 79.0 W/m2 CLR
15:07 23.0 °F 4.3 °F 30.38 in West 6.9 mph 6.9 mph 44% 0.00 in 54.0 W/m2 CLR
15:08 22.8 °F 4.1 °F 30.37 in West 5.8 mph 5.8 mph 44% 0.00 in 79.0 W/m2 CLR
15:12 22.8 °F 4.6 °F 30.38 in NNE 3.5 mph 3.5 mph 45% 0.00 in 156.0 W/m2 CLR
15:14 22.8 °F 4.1 °F 30.38 in NNE 2.3 mph 2.3 mph 44% 0.00 in 109.0 W/m2 CLR
15:24 23.1 °F 4.9 °F 30.38 in NNE 4.6 mph 4.6 mph 45% 0.00 in 151.0 W/m2 CLR
15:25 23.1 °F 4.9 °F 30.38 in NNE 5.8 mph 5.8 mph 45% 0.00 in 155.0 W/m2 CLR
15:28 23.2 °F 5.0 °F 30.38 in NNE 3.5 mph 3.5 mph 45% 0.00 in 116.0 W/m2 CLR
15:34 23.2 °F 5.0 °F 30.38 in NW 5.8 mph 5.8 mph 45% 0.00 in 35.0 W/m2 CLR
15:35 23.1 °F 4.9 °F 30.38 in NW 3.5 mph 3.5 mph 45% 0.00 in 35.0 W/m2 CLR
15:40 22.9 °F 4.7 °F 30.38 in North 3.5 mph 3.5 mph 45% 0.00 in 58.0 W/m2 CLR
15:41 22.8 °F 4.6 °F 30.38 in NW 3.5 mph 3.5 mph 45% 0.00 in 39.0 W/m2 CLR
15:43 22.8 °F 4.6 °F 30.38 in NW 4.0 mph 4.0 mph 45% 0.00 in 39.0 W/m2 CLR
15:46 22.9 °F 4.7 °F 30.38 in WNW 6.9 mph 6.9 mph 45% 0.00 in 56.0 W/m2 CLR
15:48 23.0 °F 4.8 °F 30.38 in WNW 4.6 mph 4.6 mph 45% 0.00 in 100.0 W/m2 CLR
15:50 23.0 °F 4.8 °F 30.38 in NW 2.0 mph 7.0 mph 45% 0.00 in 88.0 W/m2 CLR
15:51 23.0 °F 4.8 °F 30.37 in NW 3.5 mph 3.5 mph 45% 0.00 in 58.0 W/m2 CLR
15:56 22.7 °F 4.5 °F 30.38 in NW 4.0 mph 4.0 mph 45% 0.00 in 46.0 W/m2 CLR
16:03 22.6 °F 3.9 °F 30.38 in NW 4.6 mph 4.6 mph 44% 0.00 in 42.0 W/m2 CLR
16:09 22.6 °F 3.9 °F 30.38 in NW 3.5 mph 3.5 mph 44% 0.00 in 35.0 W/m2 CLR
16:11 22.5 °F 4.3 °F 30.38 in NW 4.6 mph 4.6 mph 45% 0.00 in 32.0 W/m2 CLR
16:16 22.6 °F 4.4 °F 30.38 in NW 2.3 mph 2.3 mph 45% 0.00 in 28.0 W/m2 CLR
16:17 22.6 °F 4.4 °F 30.38 in NW 3.5 mph 3.5 mph 45% 0.00 in 28.0 W/m2 CLR
16:22 22.5 °F 4.3 °F 30.38 in NW 3.5 mph 3.5 mph 45% 0.00 in 25.0 W/m2 CLR
16:24 22.4 °F 4.2 °F 30.38 in NW 3.5 mph 3.5 mph 45% 0.00 in 23.0 W/m2 CLR
16:29 22.3 °F 3.7 °F 30.38 in NW 3.5 mph 3.5 mph 44% 0.00 in 23.0 W/m2 CLR
16:34 22.1 °F 4.0 °F 30.38 in NW 1.2 mph 1.2 mph 45% 0.00 in 19.0 W/m2 CLR
16:35 22.1 °F 4.0 °F 30.38 in NW 2.0 mph 2.0 mph 45% 0.00 in 18.0 W/m2 CLR
16:37 22.1 °F 4.0 °F 30.38 in NW 3.5 mph 3.5 mph 45% 0.00 in 16.0 W/m2 CLR
16:42 21.8 °F 3.7 °F 30.38 in NW 3.5 mph 3.5 mph 45% 0.00 in 9.0 W/m2 CLR
16:44 21.8 °F 3.7 °F 30.38 in NW 3.5 mph 3.5 mph 45% 0.00 in 11.0 W/m2 CLR
16:49 21.6 °F 4.0 °F 30.39 in NW 3.5 mph 3.5 mph 46% 0.00 in 7.0 W/m2 CLR
16:51 21.5 °F 3.9 °F 30.39 in NW 3.5 mph 3.5 mph 46% 0.00 in 5.0 W/m2 CLR
16:56 21.4 °F 3.8 °F 30.39 in NW 3.0 mph 3.0 mph 46% 0.00 in 0.0 W/m2 CLR
16:57 21.4 °F 3.8 °F 30.39 in NW 3.5 mph 3.5 mph 46% 0.00 in 0.0 W/m2 CLR
17:02 21.2 °F 3.6 °F 30.39 in NW 3.5 mph 3.5 mph 46% 0.00 in 0.0 W/m2 CLR
17:03 21.2 °F 4.1 °F 30.39 in NW 3.5 mph 3.5 mph 47% 0.00 in 0.0 W/m2 CLR
17:08 21.0 °F 3.9 °F 30.39 in NW 1.2 mph   47% 0.00 in 0.0 W/m2 CLR
17:09 21.0 °F 3.9 °F 30.39 in NW 1.2 mph   47% 0.00 in 0.0 W/m2 CLR
17:14 20.9 °F 3.8 °F 30.39 in NW 1.2 mph 1.2 mph 47% 0.00 in 0.0 W/m2 CLR
17:19 20.8 °F 3.7 °F 30.39 in Calm     47% 0.00 in 0.0 W/m2 CLR
17:22 20.7 °F 4.1 °F 30.39 in NW 2.0 mph 2.0 mph 48% 0.00 in 0.0 W/m2 CLR
17:27 20.6 °F 4.4 °F 30.39 in Calm     49% 0.00 in 0.0 W/m2 CLR
17:32 20.5 °F 4.8 °F 30.39 in Calm     50% 0.00 in 0.0 W/m2 CLR
17:37 20.3 °F 4.6 °F 30.39 in Calm     50% 0.00 in 0.0 W/m2 CLR
17:40 20.2 °F 4.5 °F 30.39 in NW 1.2 mph   50% 0.00 in 0.0 W/m2 CLR
17:44 20.1 °F 4.4 °F 30.39 in NW 1.0 mph   50% 0.00 in 0.0 W/m2 CLR
17:48 20.0 °F 4.3 °F 30.40 in NW 1.2 mph 1.2 mph 50% 0.00 in 0.0 W/m2 CLR
17:53 19.9 °F 4.7 °F 30.40 in NW 1.2 mph 1.2 mph 51% 0.00 in 0.0 W/m2 CLR
17:58 19.7 °F 4.9 °F 30.40 in NW 1.2 mph 1.2 mph 52% 0.00 in 0.0 W/m2 CLR
18:04 19.6 °F 4.8 °F 30.40 in Calm     52% 0.00 in 0.0 W/m2 CLR
18:06 19.5 °F 4.7 °F 30.40 in NW 1.2 mph 1.2 mph 52% 0.00 in 0.0 W/m2 CLR
18:10 19.4 °F 4.6 °F 30.40 in Calm   2.0 mph 52% 0.00 in 0.0 W/m2 CLR
18:15 19.3 °F 4.9 °F 30.40 in NW 1.2 mph 1.2 mph 53% 0.00 in 0.0 W/m2 CLR
18:17 19.2 °F 4.8 °F 30.40 in NW 1.2 mph   53% 0.00 in 0.0 W/m2 CLR
18:21 19.1 °F 4.8 °F 30.40 in Calm     53% 0.00 in 0.0 W/m2 CLR
18:26 19.1 °F 5.2 °F 30.40 in Calm     54% 0.00 in 0.0 W/m2 CLR
18:31 19.0 °F 4.7 °F 30.41 in Calm     53% 0.00 in 0.0 W/m2 CLR
18:32 18.9 °F 4.6 °F 30.41 in Calm     53% 0.00 in 0.0 W/m2 CLR
18:37 18.8 °F 4.9 °F 30.41 in Calm     54% 0.00 in 0.0 W/m2 CLR
18:40 18.7 °F 4.8 °F 30.41 in Calm     54% 0.00 in 0.0 W/m2 CLR
18:41 18.7 °F 4.8 °F 30.41 in Calm     54% 0.00 in 0.0 W/m2 CLR
18:46 18.7 °F 5.2 °F 30.41 in Calm     55% 0.00 in 0.0 W/m2 CLR
18:51 18.6 °F 5.1 °F 30.41 in Calm     55% 0.00 in 0.0 W/m2 CLR
18:55 18.5 °F 5.0 °F 30.41 in Calm     55% 0.00 in 0.0 W/m2 CLR
18:57 18.4 °F 4.9 °F 30.41 in NW 1.2 mph   55% 0.00 in 0.0 W/m2 CLR
19:02 18.3 °F 4.8 °F 30.41 in NW 1.0 mph   55% 0.00 in 0.0 W/m2 CLR
19:07 18.2 °F 4.7 °F 30.41 in Calm     55% 0.00 in 0.0 W/m2 CLR
19:11 18.1 °F 5.0 °F 30.41 in Calm     56% 0.00 in 0.0 W/m2 CLR
19:16 18.0 °F 5.3 °F 30.41 in Calm     57% 0.00 in 0.0 W/m2 CLR
19:18 17.9 °F 5.2 °F 30.41 in NW 1.0 mph 1.0 mph 57% 0.00 in 0.0 W/m2 CLR
19:23 17.8 °F 5.5 °F 30.42 in Calm     58% 0.00 in 0.0 W/m2 CLR
19:28 17.7 °F 5.4 °F 30.42 in Calm   0.1 mph 58% 0.00 in 0.0 W/m2 CLR
19:33 17.7 °F 5.8 °F 30.42 in Calm     59% 0.00 in 0.0 W/m2 CLR
19:35 17.7 °F 5.8 °F 30.41 in Calm     59% 0.00 in 0.0 W/m2 CLR
19:40 17.6 °F 5.3 °F 30.42 in Calm     58% 0.00 in 0.0 W/m2 CLR
19:45 17.5 °F 5.2 °F 30.42 in Calm     58% 0.00 in 0.0 W/m2 CLR
19:47 17.4 °F 5.5 °F 30.42 in Calm     59% 0.00 in 0.0 W/m2 CLR
19:52 17.3 °F 5.8 °F 30.42 in Calm     60% 0.00 in 0.0 W/m2 CLR
19:54 17.2 °F 5.7 °F 30.42 in Calm     60% 0.00 in 0.0 W/m2 CLR
19:59 17.2 °F 5.7 °F 30.42 in Calm     60% 0.00 in 0.0 W/m2 CLR
20:04 17.2 °F 5.3 °F 30.42 in NW 1.2 mph   59% 0.00 in 0.0 W/m2 CLR
20:10 17.0 °F 5.5 °F 30.42 in Calm     60% 0.00 in 0.0 W/m2 CLR
20:15 16.9 °F 5.4 °F 30.42 in Calm     60% 0.00 in 0.0 W/m2 CLR
20:20 16.8 °F 5.7 °F 30.42 in NW 1.2 mph   61% 0.00 in 0.0 W/m2 CLR
20:23 16.7 °F 5.6 °F 30.42 in NW 1.0 mph 1.0 mph 61% 0.00 in 0.0 W/m2 CLR
20:28 16.5 °F 5.7 °F 30.43 in Calm     62% 0.00 in 0.0 W/m2 CLR
20:31 16.5 °F 5.7 °F 30.42 in NW 1.2 mph   62% 0.00 in 0.0 W/m2 CLR
20:36 16.4 °F 5.6 °F 30.42 in NW 1.2 mph   62% 0.00 in 0.0 W/m2 CLR
20:41 16.4 °F 5.6 °F 30.42 in Calm     62% 0.00 in 0.0 W/m2 CLR
20:46 16.3 °F 5.5 °F 30.42 in Calm     62% 0.00 in 0.0 W/m2 CLR
20:51 16.3 °F 6.2 °F 30.42 in Calm     64% 0.00 in 0.0 W/m2 CLR
20:53 16.2 °F 6.5 °F 30.42 in Calm     65% 0.00 in 0.0 W/m2 CLR
20:58 16.2 °F 6.5 °F 30.42 in Calm     65% 0.00 in 0.0 W/m2 CLR
21:00 16.2 °F 6.5 °F 30.42 in Calm     65% 0.00 in 0.0 W/m2 CLR
21:01 16.2 °F 6.8 °F 30.42 in Calm     66% 0.00 in 0.0 W/m2 CLR
21:06 16.1 °F 6.1 °F 30.43 in Calm     64% 0.00 in 0.0 W/m2 CLR
21:08 16.0 °F 5.6 °F 30.42 in Calm     63% 0.00 in 0.0 W/m2 CLR
21:13 16.0 °F 5.6 °F 30.42 in Calm     63% 0.00 in 0.0 W/m2 CLR
21:14 15.9 °F 5.5 °F 30.42 in Calm     63% 0.00 in 0.0 W/m2 CLR
21:16 15.9 °F 5.5 °F 30.42 in Calm     63% 0.00 in 0.0 W/m2 CLR
21:21 15.8 °F 5.4 °F 30.42 in Calm     63% 0.00 in 0.0 W/m2 CLR
21:24 15.8 °F 5.4 °F 30.42 in Calm     63% 0.00 in 0.0 W/m2 CLR
21:29 15.8 °F 5.4 °F 30.42 in Calm     63% 0.00 in 0.0 W/m2 CLR
21:33 15.7 °F 5.7 °F 30.42 in Calm     64% 0.00 in 0.0 W/m2 CLR
21:38 15.8 °F 6.1 °F 30.42 in Calm     65% 0.00 in 0.0 W/m2 CLR
21:39 15.8 °F 6.1 °F 30.42 in Calm     65% 0.00 in 0.0 W/m2 CLR
21:40 15.8 °F 6.1 °F 30.42 in Calm     65% 0.00 in 0.0 W/m2 CLR
21:45 15.8 °F 6.4 °F 30.42 in Calm     66% 0.00 in 0.0 W/m2 CLR
21:48 15.7 °F 6.3 °F 30.43 in Calm     66% 0.00 in 0.0 W/m2 CLR
21:53 15.7 °F 6.7 °F 30.43 in Calm     67% 0.00 in 0.0 W/m2 CLR
21:54 15.7 °F 6.7 °F 30.43 in Calm     67% 0.00 in 0.0 W/m2 CLR
21:59 15.7 °F 6.7 °F 30.43 in Calm     67% 0.00 in 0.0 W/m2 CLR
22:04 15.8 °F 6.8 °F 30.43 in Calm     67% 0.00 in 0.0 W/m2 BKN
22:05 15.8 °F 6.8 °F 30.43 in Calm     67% 0.00 in 0.0 W/m2 BKN
22:10 15.9 °F 7.2 °F 30.43 in NW 1.2 mph   68% 0.00 in 0.0 W/m2 BKN
22:13 15.9 °F 7.2 °F 30.43 in Calm     68% 0.00 in 0.0 W/m2 BKN
22:18 16.1 °F 7.4 °F 30.42 in Calm     68% 0.00 in 0.0 W/m2 BKN
22:20 16.1 °F 7.4 °F 30.42 in Calm     68% 0.00 in 0.0 W/m2 BKN
22:23 16.2 °F 7.2 °F 30.42 in Calm     67% 0.00 in 0.0 W/m2 BKN
22:27 16.3 °F 7.3 °F 30.42 in Calm     67% 0.00 in 0.0 W/m2 BKN
22:32 16.4 °F 7.0 °F 30.42 in Calm     66% 0.00 in 0.0 W/m2 BKN
22:33 16.4 °F 7.0 °F 30.42 in Calm     66% 0.00 in 0.0 W/m2 BKN
22:35 16.5 °F 7.1 °F 30.42 in Calm     66% 0.00 in 0.0 W/m2 BKN
22:40 16.7 °F 8.9 °F 30.42 in Calm     71% 0.00 in 0.0 W/m2 BKN
22:45 16.7 °F 9.8 °F 30.42 in Calm     74% 0.00 in 0.0 W/m2 BKN
22:46 16.7 °F 10.1 °F 30.42 in Calm     75% 0.00 in 0.0 W/m2 BKN
22:51 16.7 °F 10.1 °F 30.42 in Calm     75% 0.00 in 0.0 W/m2 BKN
22:54 16.6 °F 10.1 °F 30.42 in Calm     75% 0.00 in 0.0 W/m2 BKN
22:59 16.7 °F 10.1 °F 30.42 in Calm     75% 0.00 in 0.0 W/m2 BKN
23:00 16.7 °F 10.4 °F 30.42 in Calm     76% 0.00 in 0.0 W/m2 BKN
23:05 16.8 °F 9.9 °F 30.42 in Calm     74% 0.00 in 0.0 W/m2 OVC
23:08 16.8 °F 9.9 °F 30.42 in Calm     74% 0.00 in 0.0 W/m2 OVC
23:11 16.9 °F 10.3 °F 30.42 in Calm     75% 0.00 in 0.0 W/m2 OVC
23:16 17.0 °F 10.7 °F 30.42 in Calm     76% 0.00 in 0.0 W/m2 OVC
23:19 17.0 °F 10.7 °F 30.41 in Calm     76% 0.00 in 0.0 W/m2 OVC
23:24 17.1 °F 10.8 °F 30.41 in Calm     76% 0.00 in 0.0 W/m2 OVC
23:25 17.1 °F 10.8 °F 30.41 in Calm     76% 0.00 in 0.0 W/m2 OVC
23:30 17.2 °F 10.9 °F 30.42 in Calm     76% 0.00 in 0.0 W/m2 OVC
23:35 17.3 °F 11.0 °F 30.42 in Calm     76% 0.00 in 0.0 W/m2 OVC
23:40 17.4 °F 10.2 °F 30.42 in Calm     73% 0.00 in 0.0 W/m2 OVC
23:45 17.5 °F 8.7 °F 30.41 in Calm     68% 0.00 in 0.0 W/m2 OVC
23:49 17.6 °F 8.5 °F 30.41 in Calm     67% 0.00 in 0.0 W/m2 OVC
23:50 17.6 °F 8.5 °F 30.41 in Calm     67% 0.00 in 0.0 W/m2 OVC
23:55 17.7 °F 8.6 °F 30.42 in NW 1.2 mph   67% 0.00 in 0.0 W/m2 OVC
Bruceton, TN. NWS Weather Forecast
Compliments of:  Weather Underground - 6 mb

Interesting Weather Facts
HURRICANE FACTS
1961 was the last time two Category 5 hurricanes formed in the same year.1960 was the last time two Category 5 hurricanes formed and eventually made U.S. land fall. 2005 has now matched that with Katrina and now Rita.